Secretariat — WDG2166 — position and weather

sailwx.info

Track history (hours):
 
Tides and Currents Weather Stations Pressure Air Temp Water Temp Dewpoint Dewpoint Depression Visibility Wind Speed Wind Dir Waves Ship Positions

Secretariat

Owner: Turn Services, LLC, New Orleans, LA. More information available from US FCC via Universal Licensing System and Coast Guard Vessel Documentation Center.

Last reported at 2017-Sep-18 15:05 UTC. Time now 2017-Sep-19 17:18 UTC.
Position N 29°50' W 091°59'.

Length 22 m; draft 2.8 m.

Type: Towing. MMSI: 367512840.

Date/timePositionNaut miles runAvg speedWind from/ knotsBaromVisibWave heightAir tempDewpointWater temp
2017-Sep-18 15:05N 29°50' W 091°59'0 4.1
2017-Sep-18 15:00N 29°50' W 091°60'2 4.4
2017-Sep-18 14:30N 29°49' W 092°02'2 4.3
2017-Sep-18 14:00N 29°48' W 092°05'2 4.3
2017-Sep-18 13:30N 29°47' W 092°07'2 4.3
2017-Sep-18 13:00N 29°47' W 092°09'2 3.4
2017-Sep-18 12:30N 29°47' W 092°11'2 3.3
2017-Sep-18 12:00N 29°47' W 092°13'2 3.8
2017-Sep-18 11:30N 29°48' W 092°15'2 3.2
2017-Sep-18 11:00N 29°49' W 092°17'2 3.1
2017-Sep-18 10:29N 29°50' W 092°18'1 2.9
2017-Sep-18 10:00N 29°50' W 092°19'1 1.3
2017-Sep-18 09:31N 29°51' W 092°20'0 0.0
2017-Sep-18 09:00N 29°51' W 092°20'37 3.6
2017-Sep-17 22:54N 29°56' W 093°02'1 3.6
2017-Sep-17 22:29N 29°56' W 093°04'2 3.4
2017-Sep-17 22:00N 29°56' W 093°06'2 3.4
2017-Sep-17 21:30N 29°56' W 093°08'2 3.4
2017-Sep-17 21:00N 29°56' W 093°10'2 3.6
2017-Sep-17 20:30N 29°58' W 093°11'2 3.6
2017-Sep-17 20:00N 29°59' W 093°12'2 3.4
2017-Sep-17 19:30N 30°00' W 093°14'1 3.0
2017-Sep-17 19:00N 30°02' W 093°14'2 3.2
2017-Sep-17 18:30N 30°03' W 093°16'2 3.1
2017-Sep-17 18:01N 30°04' W 093°16'1 2.9
2017-Sep-17 17:30N 30°05' W 093°17'1 1.4
2017-Sep-17 17:00N 30°06' W 093°18'0 0.8
2017-Sep-17 16:31N 30°06' W 093°18'0 0.1
2017-Sep-17 16:00N 30°06' W 093°18'0 0.1
2017-Sep-17 15:30N 30°06' W 093°18'1 1.4
2017-Sep-17 15:00N 30°06' W 093°19'0 0.0
2017-Sep-17 14:30N 30°06' W 093°19'0 0.0
2017-Sep-17 14:00N 30°06' W 093°19'0 0.0
2017-Sep-17 13:30N 30°06' W 093°19'0 0.0
2017-Sep-17 13:01N 30°06' W 093°19'0 0.0
2017-Sep-17 12:30N 30°06' W 093°19'0 0.0
2017-Sep-17 12:01N 30°06' W 093°19'0 0.0
2017-Sep-17 11:31N 30°06' W 093°19'0 0.2
2017-Sep-17 11:01N 30°06' W 093°19'2 3.2
2017-Sep-17 10:30N 30°05' W 093°20'1 2.9
2017-Sep-17 10:00N 30°04' W 093°22'1 2.5
2017-Sep-17 09:30N 30°04' W 093°23'2 3.3
2017-Sep-17 09:01N 30°04' W 093°25'2 3.5
2017-Sep-17 08:30N 30°04' W 093°27'2 3.6
2017-Sep-17 08:00N 30°04' W 093°29'2 3.8
2017-Sep-17 07:30N 30°04' W 093°31'2 3.8
2017-Sep-17 07:00N 30°04' W 093°33'2 3.8
2017-Sep-17 06:30N 30°04' W 093°36'2 3.7
2017-Sep-17 06:00N 30°04' W 093°38'2 3.7
2017-Sep-17 05:31N 30°04' W 093°40'2 3.7
2017-Sep-17 04:55N 30°03' W 093°42'2 3.8
2017-Sep-17 04:25N 30°02' W 093°44'2 3.5
2017-Sep-17 03:44N 30°00' W 093°46'1 3.5
2017-Sep-17 03:28N 29°60' W 093°47'2 4.1
2017-Sep-17 02:58N 29°59' W 093°49'6 0.1
2017-Sep-15 04:31N 29°55' W 093°53'0 5.4
2017-Sep-15 04:30N 29°55' W 093°53'6 5.6
2017-Sep-15 03:28N 29°59' W 093°49'3 6.3
2017-Sep-15 03:00N 30°01' W 093°46'3 5.7
2017-Sep-15 02:30N 30°03' W 093°44'3 5.8
2017-Sep-15 02:00N 30°04' W 093°40'3 6.0
2017-Sep-15 01:30N 30°04' W 093°37'3 5.1
2017-Sep-15 01:00N 30°04' W 093°34'3 5.2
2017-Sep-15 00:31N 30°04' W 093°31'3 5.1
2017-Sep-15 00:00N 30°04' W 093°28'3 5.0
2017-Sep-14 23:30N 30°04' W 093°25'3 5.5
2017-Sep-14 23:00N 30°04' W 093°22'0 0.2
2017-Sep-14 22:30N 30°04' W 093°22'1 2.7
2017-Sep-14 22:00N 30°04' W 093°21'0 0.6
2017-Sep-14 21:30N 30°04' W 093°21'1 2.0
2017-Sep-14 21:00N 30°05' W 093°20'0 0.0
2017-Sep-14 20:30N 30°05' W 093°20'0 0.0
2017-Sep-14 20:01N 30°05' W 093°20'1 1.1
2017-Sep-14 19:30N 30°04' W 093°21'1 2.8
2017-Sep-14 19:00N 30°04' W 093°22'0 0.1
2017-Sep-14 18:30N 30°04' W 093°22'1 1.6
2017-Sep-14 18:00N 30°04' W 093°21'2 3.2
2017-Sep-14 17:30N 30°05' W 093°20'1 2.0
2017-Sep-14 17:00N 30°04' W 093°21'1 2.5
2017-Sep-14 16:30N 30°04' W 093°22'2 4.1
2017-Sep-14 16:00N 30°05' W 093°20'1 2.8
2017-Sep-14 15:30N 30°04' W 093°21'0 0.4
2017-Sep-14 15:00N 30°04' W 093°21'1 1.3
2017-Sep-14 14:30N 30°04' W 093°22'0 0.6
2017-Sep-14 14:00N 30°04' W 093°22'0 0.1
2017-Sep-14 13:30N 30°04' W 093°22'0 0.0
2017-Sep-14 12:56N 30°04' W 093°22'1 3.1
2017-Sep-14 12:30N 30°04' W 093°21'2 4.0
2017-Sep-14 12:00N 30°06' W 093°19'2 3.7
2017-Sep-14 11:30N 30°05' W 093°17'2 4.4
2017-Sep-14 11:00N 30°03' W 093°16'1 1.9
2017-Sep-14 10:30N 30°02' W 093°15'0 0.4
2017-Sep-14 10:00N 30°02' W 093°15'0 0.1
2017-Sep-14 09:29N 30°02' W 093°15'0 0.0
2017-Sep-14 09:00N 30°02' W 093°15'1 1.8
2017-Sep-14 08:30N 30°02' W 093°14'3 5.4
2017-Sep-14 08:00N 29°59' W 093°13'3 6.0
2017-Sep-14 07:30N 29°57' W 093°10'3 5.3
2017-Sep-14 07:00N 29°56' W 093°08'3 5.8
2017-Sep-14 06:28N 29°56' W 093°04'38 4.8
2017-Sep-13 22:41N 29°51' W 092°21'1 4.5
2017-Sep-13 22:30N 29°51' W 092°20'2 4.4
2017-Sep-13 22:00N 29°50' W 092°18'2 4.3
2017-Sep-13 21:30N 29°48' W 092°16'2 4.8
2017-Sep-13 21:00N 29°48' W 092°13'2 3.8
2017-Sep-13 20:30N 29°47' W 092°11'2 3.8
2017-Sep-13 20:00N 29°47' W 092°09'3 5.2
2017-Sep-13 19:30N 29°48' W 092°06'3 5.2
2017-Sep-13 19:00N 29°49' W 092°03'3 5.0
2017-Sep-13 18:29N 29°50' W 092°01'11 2.3
2017-Sep-13 13:43N 29°56' W 091°50'0 0.0
2017-Sep-13 11:55N 29°56' W 091°50'58 3.7
2017-Sep-12 20:03N 29°32' W 090°49'0 5.3
2017-Sep-12 20:00N 29°32' W 090°49'2 4.2
2017-Sep-12 19:30N 29°32' W 090°46'2 3.9
2017-Sep-12 19:00N 29°34' W 090°45'2 3.7
2017-Sep-12 18:30N 29°35' W 090°43'2 3.9
2017-Sep-12 18:00N 29°36' W 090°43'2 3.7
2017-Sep-12 17:30N 29°36' W 090°40'2 3.8
2017-Sep-12 17:00N 29°35' W 090°38'1 2.5
2017-Sep-12 16:30N 29°35' W 090°37'2 3.6
2017-Sep-12 16:00N 29°35' W 090°35'2 3.8
2017-Sep-12 15:29N 29°34' W 090°33'2 3.6
2017-Sep-12 15:00N 29°34' W 090°31'2 3.6
2017-Sep-12 14:30N 29°34' W 090°29'2 3.8
2017-Sep-12 13:51N 29°33' W 090°26'1 3.9
2017-Sep-12 13:30N 29°33' W 090°25'3 3.4
2017-Sep-12 12:34N 29°35' W 090°22'0 4.0
2017-Sep-12 12:30N 29°36' W 090°22'5 0.1
2017-Sep-10 22:12N 29°33' W 090°27'1 3.8
2017-Sep-10 21:55N 29°33' W 090°28'2 3.8
2017-Sep-10 21:20N 29°34' W 090°30'1 3.7
2017-Sep-10 21:00N 29°34' W 090°32'2 3.7
2017-Sep-10 20:28N 29°34' W 090°34'2 3.6
2017-Sep-10 20:00N 29°35' W 090°36'2 3.5
2017-Sep-10 19:30N 29°35' W 090°38'2 3.6
2017-Sep-10 19:00N 29°36' W 090°40'2 3.5
2017-Sep-10 18:30N 29°37' W 090°41'1 2.7
2017-Sep-10 18:00N 29°36' W 090°43'2 3.8
2017-Sep-10 17:30N 29°34' W 090°43'2 4.0
2017-Sep-10 17:00N 29°33' W 090°45'2 4.1
2017-Sep-10 16:30N 29°32' W 090°48'2 4.6
2017-Sep-10 16:00N 29°32' W 090°50'64 2.7
2017-Sep-09 16:07N 29°50' W 092°01'2 6.8
2017-Sep-09 15:53N 29°49' W 092°02'2 6.6
2017-Sep-09 15:30N 29°48' W 092°05'3 6.2
2017-Sep-09 15:00N 29°47' W 092°08'2 4.2
2017-Sep-09 14:29N 29°47' W 092°11'3 5.8
2017-Sep-09 13:58N 29°48' W 092°14'2 4.2
2017-Sep-09 13:29N 29°49' W 092°16'2 4.8
2017-Sep-09 13:00N 29°50' W 092°18'26 5.8
2017-Sep-09 08:29N 29°58' W 092°47'3 5.6
2017-Sep-09 07:59N 29°58' W 092°50'3 6.0
2017-Sep-09 07:30N 29°57' W 092°53'4 5.9
2017-Sep-09 06:54N 29°56' W 092°57'2 3.8
2017-Sep-09 06:30N 29°56' W 092°59'10 4.8
2017-Sep-09 04:29N 29°57' W 093°10'2 3.8
2017-Sep-09 03:50N 29°58' W 093°12'3 4.9
2017-Sep-09 03:10N 30°01' W 093°14'1 5.2
2017-Sep-09 03:00N 30°02' W 093°15'3 4.1
2017-Sep-09 02:22N 30°04' W 093°16'2 4.6
2017-Sep-09 02:00N 30°05' W 093°17'2 3.0
2017-Sep-09 01:21N 30°05' W 093°20'0 0.2
2017-Sep-09 01:00N 30°05' W 093°20'1 2.2
2017-Sep-09 00:30N 30°04' W 093°21'0 0.8
2017-Sep-09 00:00N 30°04' W 093°21'1 2.8
2017-Sep-08 23:30N 30°05' W 093°20'0 0.1
2017-Sep-08 23:00N 30°05' W 093°20'0 0.1
2017-Sep-08 22:30N 30°05' W 093°20'0 0.0
2017-Sep-08 22:00N 30°05' W 093°20'1 1.3
2017-Sep-08 21:31N 30°05' W 093°20'0 0.0
2017-Sep-08 21:00N 30°05' W 093°20'0 0.9
2017-Sep-08 20:30N 30°05' W 093°20'0 0.2
2017-Sep-08 20:00N 30°05' W 093°20'0 0.7
2017-Sep-08 19:30N 30°05' W 093°20'0 0.9
2017-Sep-08 19:00N 30°05' W 093°20'0 0.0
2017-Sep-08 18:30N 30°05' W 093°20'1 2.8
2017-Sep-08 18:00N 30°06' W 093°19'2 4.2
2017-Sep-08 17:30N 30°05' W 093°17'2 3.0
2017-Sep-08 17:00N 30°04' W 093°16'0 0.1
2017-Sep-08 16:30N 30°04' W 093°16'0 0.0
2017-Sep-08 16:00N 30°04' W 093°16'0 0.0
2017-Sep-08 15:30N 30°04' W 093°16'  
Track history (hours):
 
Tides and Currents Weather Stations Pressure Air Temp Water Temp Dewpoint Dewpoint Depression Visibility Wind Speed Wind Dir Waves Ship Positions

Secretariat

Owner: Turn Services, LLC, New Orleans, LA. More information available from US FCC via Universal Licensing System and Coast Guard Vessel Documentation Center.

Last reported at 2017-Sep-18 15:05 UTC. Time now 2017-Sep-19 17:18 UTC.
Position N 29°50' W 091°59'.

Length 22 m; draft 2.8 m.

Type: Towing. MMSI: 367512840.

Date/timePositionNaut miles runAvg speedWind from/ knotsBaromVisibWave heightAir tempDewpointWater temp
2017-Sep-18 15:05N 29°50' W 091°59'0 4.1
2017-Sep-18 15:00N 29°50' W 091°60'2 4.4
2017-Sep-18 14:30N 29°49' W 092°02'2 4.3
2017-Sep-18 14:00N 29°48' W 092°05'2 4.3
2017-Sep-18 13:30N 29°47' W 092°07'2 4.3
2017-Sep-18 13:00N 29°47' W 092°09'2 3.4
2017-Sep-18 12:30N 29°47' W 092°11'2 3.3
2017-Sep-18 12:00N 29°47' W 092°13'2 3.8
2017-Sep-18 11:30N 29°48' W 092°15'2 3.2
2017-Sep-18 11:00N 29°49' W 092°17'2 3.1
2017-Sep-18 10:29N 29°50' W 092°18'1 2.9
2017-Sep-18 10:00N 29°50' W 092°19'1 1.3
2017-Sep-18 09:31N 29°51' W 092°20'0 0.0
2017-Sep-18 09:00N 29°51' W 092°20'37 3.6
2017-Sep-17 22:54N 29°56' W 093°02'1 3.6
2017-Sep-17 22:29N 29°56' W 093°04'2 3.4
2017-Sep-17 22:00N 29°56' W 093°06'2 3.4
2017-Sep-17 21:30N 29°56' W 093°08'2 3.4
2017-Sep-17 21:00N 29°56' W 093°10'2 3.6
2017-Sep-17 20:30N 29°58' W 093°11'2 3.6
2017-Sep-17 20:00N 29°59' W 093°12'2 3.4
2017-Sep-17 19:30N 30°00' W 093°14'1 3.0
2017-Sep-17 19:00N 30°02' W 093°14'2 3.2
2017-Sep-17 18:30N 30°03' W 093°16'2 3.1
2017-Sep-17 18:01N 30°04' W 093°16'1 2.9
2017-Sep-17 17:30N 30°05' W 093°17'1 1.4
2017-Sep-17 17:00N 30°06' W 093°18'0 0.8
2017-Sep-17 16:31N 30°06' W 093°18'0 0.1
2017-Sep-17 16:00N 30°06' W 093°18'0 0.1
2017-Sep-17 15:30N 30°06' W 093°18'1 1.4
2017-Sep-17 15:00N 30°06' W 093°19'0 0.0
2017-Sep-17 14:30N 30°06' W 093°19'0 0.0
2017-Sep-17 14:00N 30°06' W 093°19'0 0.0
2017-Sep-17 13:30N 30°06' W 093°19'0 0.0
2017-Sep-17 13:01N 30°06' W 093°19'0 0.0
2017-Sep-17 12:30N 30°06' W 093°19'0 0.0
2017-Sep-17 12:01N 30°06' W 093°19'0 0.0
2017-Sep-17 11:31N 30°06' W 093°19'0 0.2
2017-Sep-17 11:01N 30°06' W 093°19'2 3.2
2017-Sep-17 10:30N 30°05' W 093°20'1 2.9
2017-Sep-17 10:00N 30°04' W 093°22'1 2.5
2017-Sep-17 09:30N 30°04' W 093°23'2 3.3
2017-Sep-17 09:01N 30°04' W 093°25'2 3.5
2017-Sep-17 08:30N 30°04' W 093°27'2 3.6
2017-Sep-17 08:00N 30°04' W 093°29'2 3.8
2017-Sep-17 07:30N 30°04' W 093°31'2 3.8
2017-Sep-17 07:00N 30°04' W 093°33'2 3.8
2017-Sep-17 06:30N 30°04' W 093°36'2 3.7
2017-Sep-17 06:00N 30°04' W 093°38'2 3.7
2017-Sep-17 05:31N 30°04' W 093°40'2 3.7
2017-Sep-17 04:55N 30°03' W 093°42'2 3.8
2017-Sep-17 04:25N 30°02' W 093°44'2 3.5
2017-Sep-17 03:44N 30°00' W 093°46'1 3.5
2017-Sep-17 03:28N 29°60' W 093°47'2 4.1
2017-Sep-17 02:58N 29°59' W 093°49'6 0.1
2017-Sep-15 04:31N 29°55' W 093°53'0 5.4
2017-Sep-15 04:30N 29°55' W 093°53'6 5.6
2017-Sep-15 03:28N 29°59' W 093°49'3 6.3
2017-Sep-15 03:00N 30°01' W 093°46'3 5.7
2017-Sep-15 02:30N 30°03' W 093°44'3 5.8
2017-Sep-15 02:00N 30°04' W 093°40'3 6.0
2017-Sep-15 01:30N 30°04' W 093°37'3 5.1
2017-Sep-15 01:00N 30°04' W 093°34'3 5.2
2017-Sep-15 00:31N 30°04' W 093°31'3 5.1
2017-Sep-15 00:00N 30°04' W 093°28'3 5.0
2017-Sep-14 23:30N 30°04' W 093°25'3 5.5
2017-Sep-14 23:00N 30°04' W 093°22'0 0.2
2017-Sep-14 22:30N 30°04' W 093°22'1 2.7
2017-Sep-14 22:00N 30°04' W 093°21'0 0.6
2017-Sep-14 21:30N 30°04' W 093°21'1 2.0
2017-Sep-14 21:00N 30°05' W 093°20'0 0.0
2017-Sep-14 20:30N 30°05' W 093°20'0 0.0
2017-Sep-14 20:01N 30°05' W 093°20'1 1.1
2017-Sep-14 19:30N 30°04' W 093°21'1 2.8
2017-Sep-14 19:00N 30°04' W 093°22'0 0.1
2017-Sep-14 18:30N 30°04' W 093°22'1 1.6
2017-Sep-14 18:00N 30°04' W 093°21'2 3.2
2017-Sep-14 17:30N 30°05' W 093°20'1 2.0
2017-Sep-14 17:00N 30°04' W 093°21'1 2.5
2017-Sep-14 16:30N 30°04' W 093°22'2 4.1
2017-Sep-14 16:00N 30°05' W 093°20'1 2.8
2017-Sep-14 15:30N 30°04' W 093°21'0 0.4
2017-Sep-14 15:00N 30°04' W 093°21'1 1.3
2017-Sep-14 14:30N 30°04' W 093°22'0 0.6
2017-Sep-14 14:00N 30°04' W 093°22'0 0.1
2017-Sep-14 13:30N 30°04' W 093°22'0 0.0
2017-Sep-14 12:56N 30°04' W 093°22'1 3.1
2017-Sep-14 12:30N 30°04' W 093°21'2 4.0
2017-Sep-14 12:00N 30°06' W 093°19'2 3.7
2017-Sep-14 11:30N 30°05' W 093°17'2 4.4
2017-Sep-14 11:00N 30°03' W 093°16'1 1.9
2017-Sep-14 10:30N 30°02' W 093°15'0 0.4
2017-Sep-14 10:00N 30°02' W 093°15'0 0.1
2017-Sep-14 09:29N 30°02' W 093°15'0 0.0
2017-Sep-14 09:00N 30°02' W 093°15'1 1.8
2017-Sep-14 08:30N 30°02' W 093°14'3 5.4
2017-Sep-14 08:00N 29°59' W 093°13'3 6.0
2017-Sep-14 07:30N 29°57' W 093°10'3 5.3
2017-Sep-14 07:00N 29°56' W 093°08'3 5.8
2017-Sep-14 06:28N 29°56' W 093°04'38 4.8
2017-Sep-13 22:41N 29°51' W 092°21'1 4.5
2017-Sep-13 22:30N 29°51' W 092°20'2 4.4
2017-Sep-13 22:00N 29°50' W 092°18'2 4.3
2017-Sep-13 21:30N 29°48' W 092°16'2 4.8
2017-Sep-13 21:00N 29°48' W 092°13'2 3.8
2017-Sep-13 20:30N 29°47' W 092°11'2 3.8
2017-Sep-13 20:00N 29°47' W 092°09'3 5.2
2017-Sep-13 19:30N 29°48' W 092°06'3 5.2
2017-Sep-13 19:00N 29°49' W 092°03'3 5.0
2017-Sep-13 18:29N 29°50' W 092°01'11 2.3
2017-Sep-13 13:43N 29°56' W 091°50'0 0.0
2017-Sep-13 11:55N 29°56' W 091°50'58 3.7
2017-Sep-12 20:03N 29°32' W 090°49'0 5.3
2017-Sep-12 20:00N 29°32' W 090°49'2 4.2
2017-Sep-12 19:30N 29°32' W 090°46'2 3.9
2017-Sep-12 19:00N 29°34' W 090°45'2 3.7
2017-Sep-12 18:30N 29°35' W 090°43'2 3.9
2017-Sep-12 18:00N 29°36' W 090°43'2 3.7
2017-Sep-12 17:30N 29°36' W 090°40'2 3.8
2017-Sep-12 17:00N 29°35' W 090°38'1 2.5
2017-Sep-12 16:30N 29°35' W 090°37'2 3.6
2017-Sep-12 16:00N 29°35' W 090°35'2 3.8
2017-Sep-12 15:29N 29°34' W 090°33'2 3.6
2017-Sep-12 15:00N 29°34' W 090°31'2 3.6
2017-Sep-12 14:30N 29°34' W 090°29'2 3.8
2017-Sep-12 13:51N 29°33' W 090°26'1 3.9
2017-Sep-12 13:30N 29°33' W 090°25'3 3.4
2017-Sep-12 12:34N 29°35' W 090°22'0 4.0
2017-Sep-12 12:30N 29°36' W 090°22'5 0.1
2017-Sep-10 22:12N 29°33' W 090°27'1 3.8
2017-Sep-10 21:55N 29°33' W 090°28'2 3.8
2017-Sep-10 21:20N 29°34' W 090°30'1 3.7
2017-Sep-10 21:00N 29°34' W 090°32'2 3.7
2017-Sep-10 20:28N 29°34' W 090°34'2 3.6
2017-Sep-10 20:00N 29°35' W 090°36'2 3.5
2017-Sep-10 19:30N 29°35' W 090°38'2 3.6
2017-Sep-10 19:00N 29°36' W 090°40'2 3.5
2017-Sep-10 18:30N 29°37' W 090°41'1 2.7
2017-Sep-10 18:00N 29°36' W 090°43'2 3.8
2017-Sep-10 17:30N 29°34' W 090°43'2 4.0
2017-Sep-10 17:00N 29°33' W 090°45'2 4.1
2017-Sep-10 16:30N 29°32' W 090°48'2 4.6
2017-Sep-10 16:00N 29°32' W 090°50'64 2.7
2017-Sep-09 16:07N 29°50' W 092°01'2 6.8
2017-Sep-09 15:53N 29°49' W 092°02'2 6.6
2017-Sep-09 15:30N 29°48' W 092°05'3 6.2
2017-Sep-09 15:00N 29°47' W 092°08'2 4.2
2017-Sep-09 14:29N 29°47' W 092°11'3 5.8
2017-Sep-09 13:58N 29°48' W 092°14'2 4.2
2017-Sep-09 13:29N 29°49' W 092°16'2 4.8
2017-Sep-09 13:00N 29°50' W 092°18'26 5.8
2017-Sep-09 08:29N 29°58' W 092°47'3 5.6
2017-Sep-09 07:59N 29°58' W 092°50'3 6.0
2017-Sep-09 07:30N 29°57' W 092°53'4 5.9
2017-Sep-09 06:54N 29°56' W 092°57'2 3.8
2017-Sep-09 06:30N 29°56' W 092°59'10 4.8
2017-Sep-09 04:29N 29°57' W 093°10'2 3.8
2017-Sep-09 03:50N 29°58' W 093°12'3 4.9
2017-Sep-09 03:10N 30°01' W 093°14'1 5.2
2017-Sep-09 03:00N 30°02' W 093°15'3 4.1
2017-Sep-09 02:22N 30°04' W 093°16'2 4.6
2017-Sep-09 02:00N 30°05' W 093°17'2 3.0
2017-Sep-09 01:21N 30°05' W 093°20'0 0.2
2017-Sep-09 01:00N 30°05' W 093°20'1 2.2
2017-Sep-09 00:30N 30°04' W 093°21'0 0.8
2017-Sep-09 00:00N 30°04' W 093°21'1 2.8
2017-Sep-08 23:30N 30°05' W 093°20'0 0.1
2017-Sep-08 23:00N 30°05' W 093°20'0 0.1
2017-Sep-08 22:30N 30°05' W 093°20'0 0.0
2017-Sep-08 22:00N 30°05' W 093°20'1 1.3
2017-Sep-08 21:31N 30°05' W 093°20'0 0.0
2017-Sep-08 21:00N 30°05' W 093°20'0 0.9
2017-Sep-08 20:30N 30°05' W 093°20'0 0.2
2017-Sep-08 20:00N 30°05' W 093°20'0 0.7
2017-Sep-08 19:30N 30°05' W 093°20'0 0.9
2017-Sep-08 19:00N 30°05' W 093°20'0 0.0
2017-Sep-08 18:30N 30°05' W 093°20'1 2.8
2017-Sep-08 18:00N 30°06' W 093°19'2 4.2
2017-Sep-08 17:30N 30°05' W 093°17'2 3.0
2017-Sep-08 17:00N 30°04' W 093°16'0 0.1
2017-Sep-08 16:30N 30°04' W 093°16'0 0.0
2017-Sep-08 16:00N 30°04' W 093°16'0 0.0
2017-Sep-08 15:30N 30°04' W 093°16'  

Dump ship's entire track history